sensor_id;sensor_type;location;lat;lon;timestamp;pressure;altitude;pressure_sealevel;temperature;humidity
51849;BME280;38952;51.090;-1.832;2023-05-23T00:00:14;101309.47;;;12.32;57.10
51849;BME280;38952;51.090;-1.832;2023-05-23T00:02:40;101282.97;;;12.16;56.52
51849;BME280;38952;51.090;-1.832;2023-05-23T00:05:06;101294.97;;;12.10;56.31
51849;BME280;38952;51.090;-1.832;2023-05-23T00:07:36;101286.19;;;11.91;56.93
51849;BME280;38952;51.090;-1.832;2023-05-23T00:10:02;101302.31;;;11.87;57.59
51849;BME280;38952;51.090;-1.832;2023-05-23T00:12:28;101295.34;;;11.79;57.49
51849;BME280;38952;51.090;-1.832;2023-05-23T00:14:53;101291.66;;;11.68;57.87
51849;BME280;38952;51.090;-1.832;2023-05-23T00:17:19;101289.16;;;11.67;58.52
51849;BME280;38952;51.090;-1.832;2023-05-23T00:19:46;101279.13;;;11.56;57.96
51849;BME280;38952;51.090;-1.832;2023-05-23T00:22:14;101290.91;;;11.56;58.41
51849;BME280;38952;51.090;-1.832;2023-05-23T00:24:40;101285.63;;;11.49;58.59
51849;BME280;38952;51.090;-1.832;2023-05-23T00:27:13;101285.78;;;11.43;59.13
51849;BME280;38952;51.090;-1.832;2023-05-23T00:29:38;101282.06;;;11.32;58.89
51849;BME280;38952;51.090;-1.832;2023-05-23T00:32:04;101302.81;;;11.45;58.92
51849;BME280;38952;51.090;-1.832;2023-05-23T00:34:29;101309.38;;;11.44;59.62
51849;BME280;38952;51.090;-1.832;2023-05-23T00:37:03;101282.25;;;11.25;59.59
51849;BME280;38952;51.090;-1.832;2023-05-23T00:39:29;101310.38;;;11.38;59.74
51849;BME280;38952;51.090;-1.832;2023-05-23T00:41:57;101303.38;;;11.30;59.27
51849;BME280;38952;51.090;-1.832;2023-05-23T00:44:24;101293.63;;;11.17;59.66
51849;BME280;38952;51.090;-1.832;2023-05-23T00:46:53;101298.25;;;11.16;59.98
51849;BME280;38952;51.090;-1.832;2023-05-23T00:49:20;101303.22;;;11.20;59.40
51849;BME280;38952;51.090;-1.832;2023-05-23T00:51:46;101310.13;;;11.22;59.34
51849;BME280;38952;51.090;-1.832;2023-05-23T00:54:14;101290.13;;;11.05;59.83
51849;BME280;38952;51.090;-1.832;2023-05-23T00:56:45;101292.28;;;11.03;59.58
51849;BME280;38952;51.090;-1.832;2023-05-23T00:59:16;101298.91;;;11.07;59.79
51849;BME280;38952;51.090;-1.832;2023-05-23T01:01:42;101284.47;;;10.94;59.40
51849;BME280;38952;51.090;-1.832;2023-05-23T01:04:11;101302.75;;;11.06;59.39
51849;BME280;38952;51.090;-1.832;2023-05-23T01:06:37;101293.25;;;10.96;59.34
51849;BME280;38952;51.090;-1.832;2023-05-23T01:09:03;101308.09;;;11.00;59.54
51849;BME280;38952;51.090;-1.832;2023-05-23T01:11:42;101304.19;;;10.96;59.76
51849;BME280;38952;51.090;-1.832;2023-05-23T01:14:16;101302.06;;;10.98;59.80
51849;BME280;38952;51.090;-1.832;2023-05-23T01:16:53;101306.38;;;10.94;60.10
51849;BME280;38952;51.090;-1.832;2023-05-23T01:22:05;101310.84;;;10.83;59.80
51849;BME280;38952;51.090;-1.832;2023-05-23T01:27:52;101312.97;;;10.81;60.20
51849;BME280;38952;51.090;-1.832;2023-05-23T01:30:19;101311.81;;;10.77;60.47
51849;BME280;38952;51.090;-1.832;2023-05-23T01:32:47;101315.53;;;10.71;60.30
51849;BME280;38952;51.090;-1.832;2023-05-23T01:35:24;101306.16;;;10.67;60.51
51849;BME280;38952;51.090;-1.832;2023-05-23T01:37:52;101321.25;;;10.70;60.78
51849;BME280;38952;51.090;-1.832;2023-05-23T01:40:18;101307.47;;;10.64;60.53
51849;BME280;38952;51.090;-1.832;2023-05-23T01:42:43;101320.56;;;10.62;60.85
51849;BME280;38952;51.090;-1.832;2023-05-23T01:45:10;101309.63;;;10.62;61.07
51849;BME280;38952;51.090;-1.832;2023-05-23T01:47:37;101305.81;;;10.63;61.28
51849;BME280;38952;51.090;-1.832;2023-05-23T01:50:03;101312.97;;;10.64;60.98
51849;BME280;38952;51.090;-1.832;2023-05-23T01:52:30;101312.28;;;10.57;60.88
51849;BME280;38952;51.090;-1.832;2023-05-23T01:54:56;101297.66;;;10.52;61.16
51849;BME280;38952;51.090;-1.832;2023-05-23T01:57:23;101306.13;;;10.50;61.06
51849;BME280;38952;51.090;-1.832;2023-05-23T01:59:48;101303.28;;;10.45;61.15
51849;BME280;38952;51.090;-1.832;2023-05-23T02:02:14;101303.75;;;10.42;61.71
51849;BME280;38952;51.090;-1.832;2023-05-23T02:04:40;101309.34;;;10.35;61.23
51849;BME280;38952;51.090;-1.832;2023-05-23T02:07:05;101310.53;;;10.27;61.83
51849;BME280;38952;51.090;-1.832;2023-05-23T02:09:31;101315.44;;;10.25;61.84
51849;BME280;38952;51.090;-1.832;2023-05-23T02:11:56;101315.56;;;10.19;61.50
51849;BME280;38952;51.090;-1.832;2023-05-23T02:14:23;101310.13;;;10.07;61.58
51849;BME280;38952;51.090;-1.832;2023-05-23T02:16:50;101307.66;;;9.93;61.64
51849;BME280;38952;51.090;-1.832;2023-05-23T02:19:16;101317.41;;;9.89;61.39
51849;BME280;38952;51.090;-1.832;2023-05-23T02:21:42;101316.22;;;9.85;61.93
51849;BME280;38952;51.090;-1.832;2023-05-23T02:24:07;101326.56;;;9.83;62.03
51849;BME280;38952;51.090;-1.832;2023-05-23T02:26:33;101321.13;;;9.71;62.09
51849;BME280;38952;51.090;-1.832;2023-05-23T02:28:58;101314.09;;;9.64;61.92
51849;BME280;38952;51.090;-1.832;2023-05-23T02:31:26;101330.03;;;9.67;62.14
51849;BME280;38952;51.090;-1.832;2023-05-23T02:33:54;101325.00;;;9.64;61.75
51849;BME280;38952;51.090;-1.832;2023-05-23T02:36:19;101340.94;;;9.67;62.08
51849;BME280;38952;51.090;-1.832;2023-05-23T02:38:45;101324.44;;;9.61;61.77
51849;BME280;38952;51.090;-1.832;2023-05-23T02:41:11;101340.09;;;9.66;61.59
51849;BME280;38952;51.090;-1.832;2023-05-23T02:43:36;101344.84;;;9.71;61.47
51849;BME280;38952;51.090;-1.832;2023-05-23T02:46:02;101330.03;;;9.67;60.99
51849;BME280;38952;51.090;-1.832;2023-05-23T02:48:27;101334.63;;;9.66;61.39
51849;BME280;38952;51.090;-1.832;2023-05-23T02:50:53;101340.47;;;9.70;61.35
51849;BME280;38952;51.090;-1.832;2023-05-23T02:53:18;101329.31;;;9.59;61.06
51849;BME280;38952;51.090;-1.832;2023-05-23T02:55:44;101338.91;;;9.62;61.05
51849;BME280;38952;51.090;-1.832;2023-05-23T02:58:09;101342.00;;;9.66;60.69
51849;BME280;38952;51.090;-1.832;2023-05-23T03:00:35;101352.31;;;9.64;61.12
51849;BME280;38952;51.090;-1.832;2023-05-23T03:03:00;101362.19;;;9.65;61.16
51849;BME280;38952;51.090;-1.832;2023-05-23T03:05:26;101349.47;;;9.58;61.12
51849;BME280;38952;51.090;-1.832;2023-05-23T03:07:52;101347.00;;;9.57;61.20
51849;BME280;38952;51.090;-1.832;2023-05-23T03:10:18;101342.34;;;9.57;61.04
51849;BME280;38952;51.090;-1.832;2023-05-23T03:12:45;101346.16;;;9.56;61.13
51849;BME280;38952;51.090;-1.832;2023-05-23T03:15:10;101339.75;;;9.51;61.11
51849;BME280;38952;51.090;-1.832;2023-05-23T03:17:36;101351.63;;;9.56;61.11
51849;BME280;38952;51.090;-1.832;2023-05-23T03:20:01;101341.78;;;9.55;61.29
51849;BME280;38952;51.090;-1.832;2023-05-23T03:22:28;101345.69;;;9.59;60.93
51849;BME280;38952;51.090;-1.832;2023-05-23T03:24:54;101350.06;;;9.60;60.66
51849;BME280;38952;51.090;-1.832;2023-05-23T03:27:20;101341.41;;;9.52;61.42
51849;BME280;38952;51.090;-1.832;2023-05-23T03:29:45;101347.81;;;9.57;61.24
51849;BME280;38952;51.090;-1.832;2023-05-23T03:32:12;101343.53;;;9.50;61.23
51849;BME280;38952;51.090;-1.832;2023-05-23T03:34:37;101346.38;;;9.43;61.69
51849;BME280;38952;51.090;-1.832;2023-05-23T03:37:03;101341.03;;;9.36;61.61
51849;BME280;38952;51.090;-1.832;2023-05-23T03:39:28;101339.94;;;9.25;62.11
51849;BME280;38952;51.090;-1.832;2023-05-23T03:41:54;101333.31;;;9.21;62.38
51849;BME280;38952;51.090;-1.832;2023-05-23T03:44:20;101343.13;;;9.22;62.15
51849;BME280;38952;51.090;-1.832;2023-05-23T03:46:45;101350.13;;;9.18;62.62
51849;BME280;38952;51.090;-1.832;2023-05-23T03:49:11;101347.63;;;9.17;62.29
51849;BME280;38952;51.090;-1.832;2023-05-23T03:51:36;101342.56;;;9.20;62.73
51849;BME280;38952;51.090;-1.832;2023-05-23T03:54:02;101338.78;;;9.21;63.03
51849;BME280;38952;51.090;-1.832;2023-05-23T03:56:27;101346.34;;;9.19;62.84
51849;BME280;38952;51.090;-1.832;2023-05-23T03:58:52;101350.25;;;9.12;63.00
51849;BME280;38952;51.090;-1.832;2023-05-23T04:01:18;101343.59;;;9.07;63.28
51849;BME280;38952;51.090;-1.832;2023-05-23T04:03:45;101340.38;;;8.99;63.33
51849;BME280;38952;51.090;-1.832;2023-05-23T04:06:12;101339.31;;;9.00;63.44
51849;BME280;38952;51.090;-1.832;2023-05-23T04:08:37;101349.13;;;9.01;63.64
51849;BME280;38952;51.090;-1.832;2023-05-23T04:11:06;101350.81;;;9.02;64.04
51849;BME280;38952;51.090;-1.832;2023-05-23T04:13:32;101342.03;;;9.00;63.91
51849;BME280;38952;51.090;-1.832;2023-05-23T04:15:59;101355.78;;;9.05;64.17
51849;BME280;38952;51.090;-1.832;2023-05-23T04:18:26;101358.28;;;9.06;63.77
51849;BME280;38952;51.090;-1.832;2023-05-23T04:20:53;101367.44;;;9.12;63.94
51849;BME280;38952;51.090;-1.832;2023-05-23T04:23:18;101365.31;;;9.14;64.11
51849;BME280;38952;51.090;-1.832;2023-05-23T04:25:44;101356.06;;;9.15;64.33
51849;BME280;38952;51.090;-1.832;2023-05-23T04:28:10;101367.69;;;9.22;64.18
51849;BME280;38952;51.090;-1.832;2023-05-23T04:30:36;101366.06;;;9.21;64.17
51849;BME280;38952;51.090;-1.832;2023-05-23T04:33:02;101369.22;;;9.18;64.45
51849;BME280;38952;51.090;-1.832;2023-05-23T04:35:27;101367.34;;;9.19;64.15
51849;BME280;38952;51.090;-1.832;2023-05-23T04:37:56;101358.66;;;9.10;64.50
51849;BME280;38952;51.090;-1.832;2023-05-23T04:40:22;101368.66;;;9.16;64.75
51849;BME280;38952;51.090;-1.832;2023-05-23T04:42:48;101358.66;;;9.10;65.06
51849;BME280;38952;51.090;-1.832;2023-05-23T04:45:15;101375.78;;;9.17;64.99
51849;BME280;38952;51.090;-1.832;2023-05-23T04:47:41;101368.19;;;9.19;65.61
51849;BME280;38952;51.090;-1.832;2023-05-23T04:50:06;101383.75;;;9.31;65.65
51849;BME280;38952;51.090;-1.832;2023-05-23T04:52:32;101385.53;;;9.37;64.96
51849;BME280;38952;51.090;-1.832;2023-05-23T04:54:59;101387.09;;;9.44;65.14
51849;BME280;38952;51.090;-1.832;2023-05-23T04:57:24;101391.97;;;9.54;65.42
51849;BME280;38952;51.090;-1.832;2023-05-23T04:59:50;101379.53;;;9.58;64.64
51849;BME280;38952;51.090;-1.832;2023-05-23T05:02:15;101407.06;;;9.69;64.95
51849;BME280;38952;51.090;-1.832;2023-05-23T05:04:41;101400.09;;;9.73;64.83
51849;BME280;38952;51.090;-1.832;2023-05-23T05:07:06;101399.59;;;9.76;64.84
51849;BME280;38952;51.090;-1.832;2023-05-23T05:09:31;101400.31;;;9.83;65.06
51849;BME280;38952;51.090;-1.832;2023-05-23T05:11:57;101393.19;;;9.82;65.26
51849;BME280;38952;51.090;-1.832;2023-05-23T05:14:25;101404.84;;;9.89;64.94
51849;BME280;38952;51.090;-1.832;2023-05-23T05:16:51;101410.03;;;10.03;64.86
51849;BME280;38952;51.090;-1.832;2023-05-23T05:19:19;101404.81;;;10.13;64.57
51849;BME280;38952;51.090;-1.832;2023-05-23T05:21:45;101408.00;;;10.22;64.80
51849;BME280;38952;51.090;-1.832;2023-05-23T05:24:11;101402.44;;;10.28;64.96
51849;BME280;38952;51.090;-1.832;2023-05-23T05:26:37;101400.75;;;10.39;64.20
51849;BME280;38952;51.090;-1.832;2023-05-23T05:29:02;101408.59;;;10.47;64.21
51849;BME280;38952;51.090;-1.832;2023-05-23T05:31:28;101403.59;;;10.56;64.14
51849;BME280;38952;51.090;-1.832;2023-05-23T05:33:54;101409.59;;;10.70;63.95
51849;BME280;38952;51.090;-1.832;2023-05-23T05:36:19;101410.16;;;10.84;64.31
51849;BME280;38952;51.090;-1.832;2023-05-23T05:38:46;101407.03;;;10.92;64.14
51849;BME280;38952;51.090;-1.832;2023-05-23T05:41:11;101411.88;;;11.02;63.12
51849;BME280;38952;51.090;-1.832;2023-05-23T05:43:37;101414.28;;;11.15;63.37
51849;BME280;38952;51.090;-1.832;2023-05-23T05:46:02;101412.97;;;11.18;63.51
51849;BME280;38952;51.090;-1.832;2023-05-23T05:48:28;101414.72;;;11.24;63.15
51849;BME280;38952;51.090;-1.832;2023-05-23T05:50:53;101407.28;;;11.37;63.49
51849;BME280;38952;51.090;-1.832;2023-05-23T05:53:19;101405.72;;;11.41;63.47
51849;BME280;38952;51.090;-1.832;2023-05-23T05:55:44;101414.13;;;11.51;63.12
51849;BME280;38952;51.090;-1.832;2023-05-23T05:58:09;101402.81;;;11.47;63.10
51849;BME280;38952;51.090;-1.832;2023-05-23T06:00:35;101418.59;;;11.57;62.75
51849;BME280;38952;51.090;-1.832;2023-05-23T06:03:06;101425.25;;;11.61;62.88
51849;BME280;38952;51.090;-1.832;2023-05-23T06:05:33;101420.44;;;11.68;63.16
51849;BME280;38952;51.090;-1.832;2023-05-23T06:08:05;101422.72;;;11.77;62.69
51849;BME280;38952;51.090;-1.832;2023-05-23T06:10:33;101412.28;;;11.74;63.10
51849;BME280;38952;51.090;-1.832;2023-05-23T06:12:58;101420.84;;;11.94;62.00
51849;BME280;38952;51.090;-1.832;2023-05-23T06:15:24;101409.28;;;11.92;62.59
51849;BME280;38952;51.090;-1.832;2023-05-23T06:17:59;101416.28;;;12.00;61.91
51849;BME280;38952;51.090;-1.832;2023-05-23T06:20:27;101406.72;;;12.02;62.12
51849;BME280;38952;51.090;-1.832;2023-05-23T06:22:52;101427.53;;;12.20;62.00
51849;BME280;38952;51.090;-1.832;2023-05-23T06:25:18;101434.00;;;12.31;62.00
51849;BME280;38952;51.090;-1.832;2023-05-23T06:27:46;101424.69;;;12.32;61.41
51849;BME280;38952;51.090;-1.832;2023-05-23T06:30:12;101433.63;;;12.45;61.86
51849;BME280;38952;51.090;-1.832;2023-05-23T06:32:37;101433.78;;;12.55;61.33
51849;BME280;38952;51.090;-1.832;2023-05-23T06:35:05;101432.75;;;12.61;61.68
51849;BME280;38952;51.090;-1.832;2023-05-23T06:37:31;101426.38;;;12.78;61.77
51849;BME280;38952;51.090;-1.832;2023-05-23T06:39:56;101422.47;;;12.96;61.17
51849;BME280;38952;51.090;-1.832;2023-05-23T06:42:22;101429.56;;;13.19;60.32
51849;BME280;38952;51.090;-1.832;2023-05-23T06:44:47;101424.25;;;13.34;60.67
51849;BME280;38952;51.090;-1.832;2023-05-23T06:47:12;101428.81;;;13.51;59.78
51849;BME280;38952;51.090;-1.832;2023-05-23T06:49:38;101421.72;;;13.60;59.95
51849;BME280;38952;51.090;-1.832;2023-05-23T06:52:04;101421.34;;;13.84;59.35
51849;BME280;38952;51.090;-1.832;2023-05-23T06:54:29;101419.00;;;13.98;59.16
51849;BME280;38952;51.090;-1.832;2023-05-23T06:56:55;101425.94;;;14.10;58.40
51849;BME280;38952;51.090;-1.832;2023-05-23T06:59:20;101412.75;;;14.12;58.21
51849;BME280;38952;51.090;-1.832;2023-05-23T07:01:45;101415.59;;;14.28;58.02
51849;BME280;38952;51.090;-1.832;2023-05-23T07:04:11;101427.81;;;14.47;58.08
51849;BME280;38952;51.090;-1.832;2023-05-23T07:06:36;101424.56;;;14.61;57.57
51849;BME280;38952;51.090;-1.832;2023-05-23T07:12:10;101402.34;;;14.73;56.75
51849;BME280;38952;51.090;-1.832;2023-05-23T07:14:38;101405.44;;;14.97;56.18
51849;BME280;38952;51.090;-1.832;2023-05-23T07:17:04;101410.44;;;15.10;56.02
51849;BME280;38952;51.090;-1.832;2023-05-23T07:19:30;101435.78;;;15.33;55.58
51849;BME280;38952;51.090;-1.832;2023-05-23T07:22:19;101425.91;;;15.47;54.92
51849;BME280;38952;51.090;-1.832;2023-05-23T07:25:04;101432.28;;;15.79;54.39
51849;BME280;38952;51.090;-1.832;2023-05-23T07:27:37;101417.91;;;15.97;53.35
51849;BME280;38952;51.090;-1.832;2023-05-23T07:30:05;101416.97;;;16.38;52.60
51849;BME280;38952;51.090;-1.832;2023-05-23T07:32:56;101411.00;;;16.86;51.42
51849;BME280;38952;51.090;-1.832;2023-05-23T07:35:24;101413.22;;;17.28;50.44
51849;BME280;38952;51.090;-1.832;2023-05-23T07:37:57;101443.56;;;17.78;49.19
51849;BME280;38952;51.090;-1.832;2023-05-23T07:40:35;101437.75;;;18.09;47.92
51849;BME280;38952;51.090;-1.832;2023-05-23T07:43:03;101456.63;;;18.31;47.47
51849;BME280;38952;51.090;-1.832;2023-05-23T07:45:30;101432.13;;;18.44;47.01
51849;BME280;38952;51.090;-1.832;2023-05-23T07:47:56;101418.97;;;18.55;46.70
51849;BME280;38952;51.090;-1.832;2023-05-23T07:50:22;101448.78;;;18.87;46.12
51849;BME280;38952;51.090;-1.832;2023-05-23T07:52:56;101456.72;;;18.94;45.67
51849;BME280;38952;51.090;-1.832;2023-05-23T07:55:42;101469.44;;;19.19;46.10
51849;BME280;38952;51.090;-1.832;2023-05-23T07:58:12;101439.25;;;19.17;45.38
51849;BME280;38952;51.090;-1.832;2023-05-23T08:00:41;101442.81;;;19.37;45.10
51849;BME280;38952;51.090;-1.832;2023-05-23T08:03:06;101456.47;;;19.52;44.77
51849;BME280;38952;51.090;-1.832;2023-05-23T08:05:32;101436.75;;;19.54;44.25
51849;BME280;38952;51.090;-1.832;2023-05-23T08:11:28;101423.50;;;19.84;43.15
51849;BME280;38952;51.090;-1.832;2023-05-23T08:13:54;101442.78;;;20.08;42.64
51849;BME280;38952;51.090;-1.832;2023-05-23T08:16:33;101413.66;;;20.05;42.27
51849;BME280;38952;51.090;-1.832;2023-05-23T08:18:59;101427.88;;;20.32;41.67
51849;BME280;38952;51.090;-1.832;2023-05-23T08:21:39;101407.13;;;20.43;40.92
51849;BME280;38952;51.090;-1.832;2023-05-23T08:24:05;101410.09;;;20.74;40.52
51849;BME280;38952;51.090;-1.832;2023-05-23T08:26:33;101435.44;;;21.09;40.12
51849;BME280;38952;51.090;-1.832;2023-05-23T08:29:04;101408.63;;;21.27;39.72
51849;BME280;38952;51.090;-1.832;2023-05-23T08:31:33;101427.06;;;21.60;39.12
51849;BME280;38952;51.090;-1.832;2023-05-23T08:33:58;101444.78;;;21.95;39.15
51849;BME280;38952;51.090;-1.832;2023-05-23T08:36:37;101431.94;;;22.08;37.41
51849;BME280;38952;51.090;-1.832;2023-05-23T08:39:04;101449.94;;;22.34;37.66
51849;BME280;38952;51.090;-1.832;2023-05-23T08:41:30;101439.63;;;22.34;37.31
51849;BME280;38952;51.090;-1.832;2023-05-23T08:44:15;101436.91;;;22.52;37.22
51849;BME280;38952;51.090;-1.832;2023-05-23T08:47:09;101434.75;;;22.48;36.95
51849;BME280;38952;51.090;-1.832;2023-05-23T08:49:36;101448.19;;;22.46;36.48
51849;BME280;38952;51.090;-1.832;2023-05-23T08:52:15;101420.00;;;22.57;36.24
51849;BME280;38952;51.090;-1.832;2023-05-23T08:54:43;101437.28;;;22.85;35.80
51849;BME280;38952;51.090;-1.832;2023-05-23T08:57:29;101419.44;;;22.95;35.29
51849;BME280;38952;51.090;-1.832;2023-05-23T09:00:03;101411.78;;;23.18;35.22
51849;BME280;38952;51.090;-1.832;2023-05-23T09:02:47;101436.19;;;23.65;34.45
51849;BME280;38952;51.090;-1.832;2023-05-23T09:20:15;101441.28;;;24.75;32.98
51849;BME280;38952;51.090;-1.832;2023-05-23T10:29:31;101434.38;;;35.76;18.57
51849;BME280;38952;51.090;-1.832;2023-05-23T10:31:58;101459.16;;;34.36;19.72
51849;BME280;38952;51.090;-1.832;2023-05-23T10:37:11;101462.56;;;31.46;22.28
51849;BME280;38952;51.090;-1.832;2023-05-23T10:40:00;101463.13;;;30.71;23.28
51849;BME280;38952;51.090;-1.832;2023-05-23T10:42:51;101467.03;;;29.74;23.67
51849;BME280;38952;51.090;-1.832;2023-05-23T10:45:23;101444.31;;;28.88;24.32
51849;BME280;38952;51.090;-1.832;2023-05-23T10:47:52;101446.63;;;28.35;24.56
51849;BME280;38952;51.090;-1.832;2023-05-23T10:50:31;101452.38;;;27.94;24.74
51849;BME280;38952;51.090;-1.832;2023-05-23T10:53:02;101451.38;;;27.58;25.57
51849;BME280;38952;51.090;-1.832;2023-05-23T10:55:47;101455.09;;;27.22;26.19
51849;BME280;38952;51.090;-1.832;2023-05-23T10:58:18;101454.06;;;27.14;26.39
51849;BME280;38952;51.090;-1.832;2023-05-23T11:01:12;101439.41;;;27.33;26.39
51849;BME280;38952;51.090;-1.832;2023-05-23T11:06:29;101461.03;;;28.49;25.96
51849;BME280;38952;51.090;-1.832;2023-05-23T11:09:06;101453.66;;;28.77;25.68
51849;BME280;38952;51.090;-1.832;2023-05-23T11:17:15;101427.34;;;29.83;24.16
51849;BME280;38952;51.090;-1.832;2023-05-23T11:19:59;101450.88;;;30.14;24.30
51849;BME280;38952;51.090;-1.832;2023-05-23T11:22:35;101441.34;;;30.22;24.22
51849;BME280;38952;51.090;-1.832;2023-05-23T11:25:13;101428.81;;;29.96;23.41
51849;BME280;38952;51.090;-1.832;2023-05-23T11:27:48;101442.66;;;29.62;24.22
51849;BME280;38952;51.090;-1.832;2023-05-23T11:30:16;101456.91;;;29.50;24.37
51849;BME280;38952;51.090;-1.832;2023-05-23T11:32:49;101445.38;;;28.84;25.18
51849;BME280;38952;51.090;-1.832;2023-05-23T11:35:20;101435.25;;;28.63;25.15
51849;BME280;38952;51.090;-1.832;2023-05-23T11:37:49;101435.91;;;28.72;25.01
51849;BME280;38952;51.090;-1.832;2023-05-23T11:40:34;101433.94;;;29.28;25.40
51849;BME280;38952;51.090;-1.832;2023-05-23T11:43:01;101445.34;;;30.21;24.62
51849;BME280;38952;51.090;-1.832;2023-05-23T11:45:38;101444.34;;;31.09;23.95
51849;BME280;38952;51.090;-1.832;2023-05-23T11:48:14;101442.69;;;31.73;23.33
51849;BME280;38952;51.090;-1.832;2023-05-23T11:50:45;101464.66;;;32.76;22.82
51849;BME280;38952;51.090;-1.832;2023-05-23T11:53:11;101451.69;;;33.49;21.96
51849;BME280;38952;51.090;-1.832;2023-05-23T11:55:52;101455.44;;;33.82;21.43
51849;BME280;38952;51.090;-1.832;2023-05-23T11:58:27;101443.72;;;34.12;20.88
51849;BME280;38952;51.090;-1.832;2023-05-23T12:01:06;101474.16;;;34.51;20.60
51849;BME280;38952;51.090;-1.832;2023-05-23T12:03:49;101465.09;;;36.97;19.74
51849;BME280;38952;51.090;-1.832;2023-05-23T12:06:18;101477.34;;;38.65;18.15
51849;BME280;38952;51.090;-1.832;2023-05-23T12:08:46;101473.16;;;38.93;17.66
51849;BME280;38952;51.090;-1.832;2023-05-23T12:11:12;101465.75;;;38.52;17.33
51849;BME280;38952;51.090;-1.832;2023-05-23T12:13:40;101474.75;;;37.99;17.60
51849;BME280;38952;51.090;-1.832;2023-05-23T12:16:06;101471.78;;;38.34;17.77
51849;BME280;38952;51.090;-1.832;2023-05-23T12:18:32;101469.19;;;38.87;17.52
51849;BME280;38952;51.090;-1.832;2023-05-23T12:21:02;101470.75;;;39.52;17.17
51849;BME280;38952;51.090;-1.832;2023-05-23T12:23:30;101472.53;;;39.25;17.08
51849;BME280;38952;51.090;-1.832;2023-05-23T12:26:27;101476.41;;;38.48;17.59
51849;BME280;38952;51.090;-1.832;2023-05-23T12:32:54;101477.16;;;39.19;17.52
51849;BME280;38952;51.090;-1.832;2023-05-23T12:35:37;101461.00;;;40.52;16.96
51849;BME280;38952;51.090;-1.832;2023-05-23T12:38:13;101469.13;;;41.28;15.86
51849;BME280;38952;51.090;-1.832;2023-05-23T12:40:42;101475.16;;;40.88;15.39
51849;BME280;38952;51.090;-1.832;2023-05-23T12:43:08;101476.50;;;40.21;15.53
51849;BME280;38952;51.090;-1.832;2023-05-23T12:45:35;101474.28;;;39.39;15.25
51849;BME280;38952;51.090;-1.832;2023-05-23T12:48:10;101470.72;;;38.48;15.84
51849;BME280;38952;51.090;-1.832;2023-05-23T12:50:35;101472.72;;;38.74;15.98
51849;BME280;38952;51.090;-1.832;2023-05-23T12:53:01;101460.03;;;38.52;16.38
51849;BME280;38952;51.090;-1.832;2023-05-23T12:55:26;101465.47;;;38.90;16.28
51849;BME280;38952;51.090;-1.832;2023-05-23T13:00:48;101449.53;;;39.86;16.03
51849;BME280;38952;51.090;-1.832;2023-05-23T13:03:25;101448.38;;;40.78;15.36
51849;BME280;38952;51.090;-1.832;2023-05-23T13:05:56;101457.94;;;41.17;15.08
51849;BME280;38952;51.090;-1.832;2023-05-23T13:08:42;101443.97;;;41.20;15.24
51849;BME280;38952;51.090;-1.832;2023-05-23T13:11:13;101449.34;;;41.85;14.92
51849;BME280;38952;51.090;-1.832;2023-05-23T13:14:02;101428.19;;;42.75;14.35
51849;BME280;38952;51.090;-1.832;2023-05-23T13:16:27;101440.72;;;42.46;14.45
51849;BME280;38952;51.090;-1.832;2023-05-23T13:19:05;101441.94;;;41.33;14.71
51849;BME280;38952;51.090;-1.832;2023-05-23T13:21:46;101448.56;;;42.33;14.68
51849;BME280;38952;51.090;-1.832;2023-05-23T13:24:12;101427.75;;;45.23;12.98
51849;BME280;38952;51.090;-1.832;2023-05-23T13:26:40;101432.66;;;46.08;12.24
51849;BME280;38952;51.090;-1.832;2023-05-23T13:29:08;101424.69;;;46.96;11.63
51849;BME280;38952;51.090;-1.832;2023-05-23T13:31:36;101425.94;;;48.26;11.17
51849;BME280;38952;51.090;-1.832;2023-05-23T13:34:01;101427.13;;;49.44;10.69
51849;BME280;38952;51.090;-1.832;2023-05-23T13:36:32;101405.75;;;47.40;10.92
51849;BME280;38952;51.090;-1.832;2023-05-23T13:38:59;101413.03;;;45.54;11.95
51849;BME280;38952;51.090;-1.832;2023-05-23T13:41:39;101385.13;;;42.62;12.28
51849;BME280;38952;51.090;-1.832;2023-05-23T13:44:22;101391.81;;;40.20;13.69
51849;BME280;38952;51.090;-1.832;2023-05-23T13:46:50;101418.03;;;40.52;13.93
51849;BME280;38952;51.090;-1.832;2023-05-23T13:49:15;101409.94;;;41.34;13.67
51849;BME280;38952;51.090;-1.832;2023-05-23T13:51:40;101397.50;;;41.63;13.56
51849;BME280;38952;51.090;-1.832;2023-05-23T13:54:07;101397.34;;;42.18;13.57
51849;BME280;38952;51.090;-1.832;2023-05-23T13:56:33;101395.03;;;42.83;13.15
51849;BME280;38952;51.090;-1.832;2023-05-23T13:59:03;101393.66;;;44.01;12.56
51849;BME280;38952;51.090;-1.832;2023-05-23T14:01:39;101419.50;;;44.69;12.28
51849;BME280;38952;51.090;-1.832;2023-05-23T14:04:12;101414.34;;;44.18;12.33
51849;BME280;38952;51.090;-1.832;2023-05-23T14:06:52;101410.47;;;43.93;12.45
51849;BME280;38952;51.090;-1.832;2023-05-23T14:09:20;101426.31;;;45.18;12.03
51849;BME280;38952;51.090;-1.832;2023-05-23T14:11:48;101424.59;;;46.36;11.79
51849;BME280;38952;51.090;-1.832;2023-05-23T14:14:15;101410.56;;;47.13;11.22
51849;BME280;38952;51.090;-1.832;2023-05-23T14:16:51;101422.31;;;47.09;10.83
51849;BME280;38952;51.090;-1.832;2023-05-23T14:19:26;101417.22;;;45.53;11.65
51849;BME280;38952;51.090;-1.832;2023-05-23T14:21:54;101412.41;;;43.55;12.01
51849;BME280;38952;51.090;-1.832;2023-05-23T14:24:34;101400.16;;;41.83;12.79
51849;BME280;38952;51.090;-1.832;2023-05-23T14:27:00;101372.84;;;42.62;12.78
51849;BME280;38952;51.090;-1.832;2023-05-23T14:29:31;101402.72;;;41.81;13.03
51849;BME280;38952;51.090;-1.832;2023-05-23T14:31:59;101391.19;;;40.45;13.76
51849;BME280;38952;51.090;-1.832;2023-05-23T14:34:25;101408.97;;;38.78;14.53
51849;BME280;38952;51.090;-1.832;2023-05-23T14:36:50;101389.00;;;36.94;15.38
51849;BME280;38952;51.090;-1.832;2023-05-23T14:39:16;101393.38;;;36.22;15.96
51849;BME280;38952;51.090;-1.832;2023-05-23T14:41:41;101391.41;;;36.95;16.01
51849;BME280;38952;51.090;-1.832;2023-05-23T14:44:06;101382.81;;;36.64;16.06